Time;durP1;ratioP1;P1;durP2;ratioP2;P2;SDS_P1;SDS_P2;PMS_P1;PMS_P2;Temp;Humidity;BMP_temperature;BMP_pressure;BME280_temperature;BME280_humidity;BME280_pressure;Samples;Min_cycle;Max_cycle;Signal;HPM_P1;HPM_P2
2023/01/16 00:00:03;;;;;;;35.07;17.60;;;5.40;99.90;;;;;;5031334;28;20263;-64
2023/01/16 00:02:29;;;;;;;29.43;15.80;;;5.40;99.90;;;;;;5016838;28;20199;-65
2023/01/16 00:04:55;;;;;;;15.73;11.00;;;5.30;99.90;;;;;;5011866;28;20738;-65
2023/01/16 00:07:20;;;;;;;10.07;8.83;;;5.30;99.90;;;;;;5023661;28;20565;-65
2023/01/16 00:09:46;;;;;;;5.60;5.40;;;5.30;99.90;;;;;;5029724;28;20268;-65
2023/01/16 00:12:11;;;;;;;5.10;4.90;;;5.40;99.90;;;;;;5020457;28;20599;-65
2023/01/16 00:14:37;;;;;;;5.30;5.10;;;5.40;99.90;;;;;;5011541;28;20169;-65
2023/01/16 00:17:02;;;;;;;6.00;5.50;;;5.30;99.90;;;;;;5011963;28;20653;-64
2023/01/16 00:19:28;;;;;;;6.00;5.70;;;5.20;99.90;;;;;;5011501;28;20187;-65
2023/01/16 00:21:53;;;;;;;7.83;5.60;;;5.10;99.90;;;;;;5018586;28;20180;-64
2023/01/16 00:24:19;;;;;;;6.37;5.97;;;5.00;99.90;;;;;;5030456;28;20214;-64
2023/01/16 00:26:45;;;;;;;6.07;5.77;;;4.80;99.90;;;;;;5025555;28;20254;-65
2023/01/16 00:29:10;;;;;;;5.90;5.70;;;4.70;99.90;;;;;;5011408;28;20169;-64
2023/01/16 00:31:36;;;;;;;6.07;5.77;;;4.60;99.90;;;;;;5014744;28;20171;-64
2023/01/16 00:34:01;;;;;;;6.10;5.60;;;4.60;99.90;;;;;;5029418;28;20234;-64
2023/01/16 00:36:27;;;;;;;5.60;5.40;;;4.50;99.90;;;;;;5030968;28;20536;-64
2023/01/16 00:38:54;;;;;;;5.80;5.60;;;4.50;99.90;;;;;;5030991;28;20168;-64
2023/01/16 00:41:20;;;;;;;5.80;5.40;;;4.50;99.90;;;;;;5029184;28;20171;-65
2023/01/16 00:43:46;;;;;;;6.10;5.90;;;4.50;99.90;;;;;;5029493;28;20207;-64
2023/01/16 00:46:11;;;;;;;5.70;5.50;;;4.50;99.90;;;;;;5012921;28;20254;-64
2023/01/16 00:48:37;;;;;;;6.10;5.47;;;4.50;99.90;;;;;;5012652;28;20646;-64
2023/01/16 00:51:03;;;;;;;5.53;5.33;;;4.60;99.90;;;;;;5031000;28;20190;-64
2023/01/16 00:53:28;;;;;;;5.80;5.60;;;4.60;99.90;;;;;;5034582;28;20188;-64
2023/01/16 00:55:54;;;;;;;6.10;5.90;;;4.60;99.90;;;;;;5020059;28;20531;-63
2023/01/16 00:58:20;;;;;;;6.30;6.00;;;4.60;99.90;;;;;;5014849;28;20179;-65
2023/01/16 01:00:45;;;;;;;6.10;5.80;;;4.70;99.90;;;;;;5027085;28;20263;-64
2023/01/16 01:03:11;;;;;;;6.47;5.87;;;4.70;99.90;;;;;;5034127;28;20203;-64
2023/01/16 01:05:38;;;;;;;6.40;6.10;;;4.70;99.90;;;;;;5034224;28;20663;-64
2023/01/16 01:08:04;;;;;;;5.30;5.10;;;4.70;99.90;;;;;;5024958;28;20252;-64
2023/01/16 01:10:30;;;;;;;5.53;5.33;;;4.70;99.90;;;;;;5014392;28;20650;-64
2023/01/16 01:12:55;;;;;;;5.70;5.50;;;4.70;99.90;;;;;;5021910;28;20250;-64
2023/01/16 01:15:22;;;;;;;5.90;5.70;;;4.70;99.90;;;;;;5034212;28;20167;-65
2023/01/16 01:17:48;;;;;;;5.80;5.60;;;4.70;99.90;;;;;;5027887;28;20250;-65
2023/01/16 01:20:14;;;;;;;5.63;5.43;;;4.70;99.90;;;;;;5014203;28;20176;-65
2023/01/16 01:22:39;;;;;;;6.00;5.70;;;4.80;99.90;;;;;;5017609;28;20191;-65
2023/01/16 01:25:05;;;;;;;5.70;5.50;;;4.80;99.90;;;;;;5034072;28;20171;-64
2023/01/16 01:27:31;;;;;;;5.50;5.30;;;4.90;99.90;;;;;;5030952;28;20195;-64
2023/01/16 01:29:56;;;;;;;5.93;5.53;;;4.90;99.90;;;;;;5014205;28;20180;-64
2023/01/16 01:32:22;;;;;;;5.50;5.30;;;4.90;99.90;;;;;;5032753;28;20289;-64
2023/01/16 01:34:48;;;;;;;5.70;5.47;;;4.90;99.90;;;;;;5017175;28;20184;-64
2023/01/16 01:37:13;;;;;;;6.03;5.83;;;4.90;99.90;;;;;;5014408;28;20537;-65
2023/01/16 01:39:39;;;;;;;5.80;5.60;;;4.90;99.90;;;;;;5028095;28;20183;-64
2023/01/16 01:44:53;;;;;;;5.60;5.40;;;4.90;99.90;;;;;;5018158;28;20206;-64
2023/01/16 01:47:25;;;;;;;5.70;5.50;;;5.00;99.90;;;;;;5013904;28;20192;-64
2023/01/16 01:49:52;;;;;;;6.00;5.80;;;5.10;99.90;;;;;;5028618;28;20515;-65
2023/01/16 01:52:20;;;;;;;5.40;5.20;;;5.10;99.90;;;;;;5033533;28;20191;-65
2023/01/16 01:54:52;;;;;;;5.47;5.27;;;5.20;99.90;;;;;;5019208;28;20183;-64
2023/01/16 01:57:46;;;;;;;6.17;5.77;;;5.20;99.90;;;;;;5024309;28;20222;-64
2023/01/16 02:00:17;;;;;;;6.20;5.90;;;5.30;99.90;;;;;;5030602;28;20230;-65
2023/01/16 02:02:48;;;;;;;5.60;5.40;;;5.30;99.90;;;;;;5018354;28;20623;-64
2023/01/16 02:05:19;;;;;;;5.97;5.67;;;5.20;99.90;;;;;;5013719;28;20263;-65
2023/01/16 02:07:44;;;;;;;5.60;5.40;;;5.20;99.90;;;;;;5028102;28;20203;-65
2023/01/16 02:10:32;;;;;;;6.37;5.63;;;5.20;99.90;;;;;;5031674;28;20185;-65
2023/01/16 02:12:59;;;;;;;5.33;5.13;;;5.20;99.90;;;;;;5017191;28;20302;-65
2023/01/16 02:15:25;;;;;;;5.40;5.20;;;5.20;99.90;;;;;;5013355;28;20176;-65
2023/01/16 02:20:56;;;;;;;9.60;5.00;;;5.10;99.90;;;;;;5032673;28;20658;-64
2023/01/16 02:23:43;;;;;;;6.03;5.73;;;5.00;99.90;;;;;;5015710;28;20208;-64
2023/01/16 02:26:37;;;;;;;5.70;5.50;;;4.80;99.90;;;;;;5014339;28;20594;-64
2023/01/16 02:29:14;;;;;;;5.70;5.40;;;4.70;99.90;;;;;;5004511;28;20591;-64
2023/01/16 02:32:10;;;;;;;5.90;5.60;;;4.60;99.90;;;;;;5012816;28;20172;-64
2023/01/16 02:34:54;;;;;;;5.80;5.60;;;4.60;99.90;;;;;;5012933;28;20547;-64
2023/01/16 02:37:54;;;;;;;5.67;5.47;;;4.50;99.90;;;;;;5013243;28;20191;-64
2023/01/16 02:40:31;;;;;;;5.63;5.43;;;4.40;99.90;;;;;;5013790;28;20180;-64
2023/01/16 02:43:36;;;;;;;6.10;5.90;;;4.30;99.90;;;;;;5012891;28;20211;-64
2023/01/16 02:46:14;;;;;;;5.73;5.53;;;4.30;99.90;;;;;;4971550;28;20216;-64
2023/01/16 02:49:00;;;;;;;6.63;6.33;;;4.20;99.90;;;;;;4971870;28;20209;-65
2023/01/16 02:51:37;;;;;;;6.37;6.17;;;4.20;99.90;;;;;;5032525;28;20187;-64
2023/01/16 02:54:35;;;;;;;6.87;6.57;;;4.10;99.90;;;;;;5037716;28;20273;-65
2023/01/16 02:57:21;;;;;;;7.00;6.70;;;4.10;99.90;;;;;;5012893;28;20188;-63
2023/01/16 02:59:49;;;;;;;7.33;7.00;;;4.10;99.90;;;;;;5020284;28;20171;-64
2023/01/16 03:02:15;;;;;;;6.33;6.13;;;4.20;99.90;;;;;;5032281;28;20195;-64
2023/01/16 03:04:49;;;;;;;6.30;6.10;;;4.30;99.90;;;;;;5025454;28;20242;-64
2023/01/16 03:07:35;;;;;;;6.50;6.20;;;4.30;99.90;;;;;;5012500;28;20203;-64
2023/01/16 03:10:28;;;;;;;5.33;5.13;;;4.40;99.90;;;;;;5021124;28;20179;-63
2023/01/16 03:13:08;;;;;;;5.80;5.60;;;4.40;99.90;;;;;;5032083;28;20219;-64
2023/01/16 03:15:55;;;;;;;5.93;5.73;;;4.30;99.90;;;;;;5018763;28;20307;-64
2023/01/16 03:18:42;;;;;;;6.27;6.07;;;4.30;99.90;;;;;;5025670;28;20699;-64
2023/01/16 03:21:32;;;;;;;6.50;6.23;;;4.20;99.90;;;;;;5031815;28;20171;-64
2023/01/16 03:24:07;;;;;;;7.10;6.60;;;4.10;99.90;;;;;;5012721;28;20685;-64
2023/01/16 03:26:43;;;;;;;7.10;6.60;;;4.10;99.90;;;;;;5012142;28;20307;-63
2023/01/16 03:29:34;;;;;;;6.60;6.33;;;4.00;99.90;;;;;;5030799;28;20175;-64
2023/01/16 03:32:05;;;;;;;7.57;6.90;;;4.00;99.90;;;;;;5021072;28;20200;-64
2023/01/16 03:35:05;;;;;;;7.33;7.03;;;3.90;99.90;;;;;;5012090;28;20200;-64
2023/01/16 03:37:40;;;;;;;6.90;6.60;;;3.90;99.90;;;;;;5013745;28;20184;-64
2023/01/16 03:40:11;;;;;;;6.90;6.60;;;3.80;99.90;;;;;;5031564;28;20170;-64
2023/01/16 03:42:44;;;;;;;7.50;7.20;;;3.70;99.90;;;;;;5016764;28;20212;-64
2023/01/16 03:45:21;;;;;;;7.80;7.50;;;3.80;99.90;;;;;;5015465;28;20207;-64
2023/01/16 03:47:54;;;;;;;7.77;7.47;;;3.70;99.90;;;;;;5031349;28;20199;-64
2023/01/16 03:50:22;;;;;;;8.77;8.00;;;3.80;99.90;;;;;;5026780;28;20638;-65
2023/01/16 03:52:52;;;;;;;7.50;7.20;;;3.70;99.90;;;;;;5011821;28;20195;-64
2023/01/16 03:55:35;;;;;;;6.97;6.67;;;3.80;99.90;;;;;;5015515;28;20637;-64
2023/01/16 03:58:24;;;;;;;7.23;6.93;;;3.80;99.90;;;;;;5031612;28;20175;-64
2023/01/16 04:01:24;;;;;;;7.40;7.10;;;3.80;99.90;;;;;;5018725;28;20188;-64
2023/01/16 04:04:21;;;;;;;7.60;7.30;;;3.80;99.90;;;;;;5011502;28;20608;-65
2023/01/16 04:07:06;;;;;;;7.43;7.10;;;3.80;99.90;;;;;;5019877;28;20215;-64
2023/01/16 04:09:55;;;;;;;7.20;6.90;;;3.80;99.90;;;;;;5029934;28;20174;-64
2023/01/16 04:12:26;;;;;;;7.70;7.40;;;3.80;99.90;;;;;;5011838;28;20184;-64
2023/01/16 04:14:59;;;;;;;7.60;7.30;;;3.80;99.90;;;;;;5028713;28;20171;-65
2023/01/16 04:17:26;;;;;;;7.40;7.10;;;3.80;99.90;;;;;;5031265;28;20175;-64
2023/01/16 04:19:51;;;;;;;7.60;7.30;;;3.80;99.90;;;;;;5014030;28;20184;-64
2023/01/16 04:22:26;;;;;;;6.87;6.53;;;3.80;99.90;;;;;;5011566;28;20203;-64
2023/01/16 04:24:54;;;;;;;6.70;6.40;;;3.80;99.90;;;;;;5031588;28;20171;-64
2023/01/16 04:27:20;;;;;;;7.63;7.23;;;3.80;99.90;;;;;;5035040;28;20234;-64
2023/01/16 04:29:46;;;;;;;6.87;6.57;;;3.80;99.90;;;;;;5034593;28;20203;-64
2023/01/16 04:32:12;;;;;;;7.03;6.33;;;3.90;99.90;;;;;;5035358;28;20218;-64
2023/01/16 04:34:37;;;;;;;6.57;6.27;;;3.90;99.90;;;;;;5034585;28;20625;-64
2023/01/16 04:37:03;;;;;;;6.27;5.97;;;3.90;99.90;;;;;;5035105;28;20255;-65
2023/01/16 04:39:29;;;;;;;6.17;5.97;;;3.90;99.90;;;;;;5022721;28;20673;-64
2023/01/16 04:41:54;;;;;;;5.90;5.67;;;4.00;99.90;;;;;;5015974;28;20259;-64
2023/01/16 04:44:20;;;;;;;6.17;5.73;;;4.00;99.90;;;;;;5024798;28;20198;-64
2023/01/16 04:46:45;;;;;;;6.00;5.80;;;4.10;99.90;;;;;;5034714;28;20173;-64
2023/01/16 04:49:11;;;;;;;8.73;6.50;;;4.10;99.90;;;;;;5026257;28;20211;-64
2023/01/16 04:51:38;;;;;;;6.37;6.07;;;4.20;99.90;;;;;;5014647;28;20665;-64
2023/01/16 04:54:05;;;;;;;6.17;5.90;;;4.20;99.90;;;;;;5014070;28;20290;-64
2023/01/16 04:56:31;;;;;;;6.23;5.97;;;4.30;99.90;;;;;;5014880;28;20210;-64
2023/01/16 04:58:57;;;;;;;6.50;6.17;;;4.30;99.90;;;;;;5020004;28;20175;-64
2023/01/16 05:01:23;;;;;;;5.17;4.97;;;4.40;99.90;;;;;;5034135;28;20167;-64
2023/01/16 05:03:49;;;;;;;5.60;5.40;;;4.50;99.90;;;;;;5030721;28;20219;-64
2023/01/16 05:06:15;;;;;;;5.70;5.50;;;4.50;99.90;;;;;;5014860;28;20307;-64
2023/01/16 05:08:40;;;;;;;6.00;5.70;;;4.60;99.90;;;;;;5015643;28;20199;-64
2023/01/16 05:11:06;;;;;;;5.90;5.70;;;4.70;99.90;;;;;;5014417;28;20337;-64
2023/01/16 05:13:31;;;;;;;5.73;5.53;;;4.70;99.90;;;;;;5015650;28;20192;-64
2023/01/16 05:15:57;;;;;;;5.90;5.70;;;4.80;99.90;;;;;;5034169;28;20202;-64
2023/01/16 05:18:23;;;;;;;6.20;6.00;;;4.80;99.90;;;;;;5033914;28;20675;-64
2023/01/16 05:20:49;;;;;;;6.33;6.03;;;4.90;99.90;;;;;;5014521;28;20183;-64
2023/01/16 05:23:15;;;;;;;7.93;5.80;;;4.90;99.90;;;;;;5014412;28;20767;-64
2023/01/16 05:25:40;;;;;;;5.80;5.50;;;5.00;99.90;;;;;;5014096;28;20620;-64
2023/01/16 05:28:06;;;;;;;6.10;5.70;;;5.00;99.90;;;;;;5014406;28;20203;-64
2023/01/16 05:30:32;;;;;;;5.70;5.40;;;5.10;99.90;;;;;;5029985;28;20176;-64
2023/01/16 05:32:58;;;;;;;5.77;5.37;;;5.10;99.90;;;;;;5033946;28;20214;-64
2023/01/16 05:35:24;;;;;;;7.80;6.27;;;5.10;99.90;;;;;;5018463;28;20177;-64
2023/01/16 05:37:49;;;;;;;6.07;5.47;;;5.20;99.90;;;;;;5025944;28;20187;-64
2023/01/16 05:40:15;;;;;;;5.67;5.43;;;5.20;99.90;;;;;;5032408;28;20194;-64
2023/01/16 05:42:44;;;;;;;6.07;5.60;;;5.20;99.90;;;;;;5022801;28;20219;-64
2023/01/16 05:45:10;;;;;;;7.23;6.10;;;5.20;99.90;;;;;;5014168;28;20582;-64
2023/01/16 05:47:35;;;;;;;7.00;6.50;;;5.30;99.90;;;;;;5023049;28;20199;-63
2023/01/16 05:50:02;;;;;;;5.70;5.30;;;5.30;99.90;;;;;;5033607;28;20250;-64
2023/01/16 05:52:27;;;;;;;5.70;5.40;;;5.30;99.90;;;;;;5025665;28;20587;-64
2023/01/16 05:54:54;;;;;;;5.70;5.50;;;5.30;99.90;;;;;;5018727;28;20179;-64
2023/01/16 05:57:20;;;;;;;6.30;5.93;;;5.40;99.90;;;;;;5033859;28;20196;-64
2023/01/16 05:59:50;;;;;;;5.80;5.60;;;5.30;99.90;;;;;;5032826;28;20289;-64
2023/01/16 06:02:17;;;;;;;5.87;5.57;;;5.30;99.90;;;;;;5033328;28;20195;-64
2023/01/16 06:04:42;;;;;;;5.60;5.40;;;5.30;99.90;;;;;;5030195;28;20544;-64
2023/01/16 06:07:08;;;;;;;5.50;5.30;;;5.40;99.90;;;;;;5013476;28;20730;-64
2023/01/16 06:09:33;;;;;;;5.30;5.10;;;5.40;99.90;;;;;;5014485;28;20168;-63
2023/01/16 06:11:59;;;;;;;5.20;5.00;;;5.40;99.90;;;;;;5014090;28;20214;-63
2023/01/16 06:14:25;;;;;;;5.53;5.33;;;5.50;99.90;;;;;;5021507;28;20195;-63
2023/01/16 06:16:50;;;;;;;5.43;5.23;;;5.50;99.90;;;;;;5023764;28;20538;-64
2023/01/16 06:19:16;;;;;;;6.00;5.80;;;5.50;99.90;;;;;;5020681;28;20203;-63
2023/01/16 06:21:41;;;;;;;6.50;6.20;;;5.50;99.90;;;;;;5030382;28;20649;-63
2023/01/16 06:24:07;;;;;;;6.50;6.20;;;5.50;99.90;;;;;;5032397;28;20179;-63
2023/01/16 06:26:33;;;;;;;6.67;6.30;;;5.50;99.90;;;;;;5016719;28;20203;-63
2023/01/16 06:28:58;;;;;;;7.60;7.30;;;5.60;99.90;;;;;;5013244;28;20250;-64
2023/01/16 06:31:24;;;;;;;5.60;5.40;;;5.60;99.90;;;;;;5024679;28;20180;-63
2023/01/16 06:33:49;;;;;;;7.50;7.10;;;5.60;99.90;;;;;;5012860;28;20184;-63
2023/01/16 06:36:15;;;;;;;8.33;7.83;;;5.60;99.90;;;;;;5013116;28;20178;-64
2023/01/16 06:38:41;;;;;;;9.20;8.80;;;5.60;99.90;;;;;;5016142;28;20179;-62
2023/01/16 06:41:06;;;;;;;10.13;9.47;;;5.60;99.90;;;;;;5032557;28;20659;-64
2023/01/16 06:43:32;;;;;;;6.80;6.50;;;5.60;99.90;;;;;;5031676;28;20257;-64
2023/01/16 06:45:57;;;;;;;6.90;6.60;;;5.60;99.90;;;;;;5031395;28;20359;-64
2023/01/16 06:48:23;;;;;;;7.53;7.07;;;5.60;99.90;;;;;;5032153;28;20207;-64
2023/01/16 06:50:49;;;;;;;4.93;4.73;;;5.60;99.90;;;;;;5012555;28;20173;-64
2023/01/16 06:53:15;;;;;;;6.10;5.70;;;5.60;99.90;;;;;;5012795;28;20720;-64
2023/01/16 06:55:41;;;;;;;6.77;6.33;;;5.70;99.90;;;;;;5030326;28;20642;-64
2023/01/16 06:58:08;;;;;;;6.63;6.33;;;5.70;99.90;;;;;;5032017;28;20179;-64
2023/01/16 07:00:34;;;;;;;6.23;5.93;;;5.70;99.90;;;;;;5012850;28;20586;-64
2023/01/16 07:03:01;;;;;;;6.30;6.00;;;5.70;99.90;;;;;;5012508;28;20196;-64
2023/01/16 07:05:28;;;;;;;7.60;7.10;;;5.70;99.90;;;;;;5030805;28;20176;-64
2023/01/16 07:07:54;;;;;;;10.37;6.97;;;5.70;99.90;;;;;;5032123;28;20558;-63
2023/01/16 07:10:21;;;;;;;7.40;6.90;;;5.70;99.90;;;;;;5014440;28;20611;-63
2023/01/16 07:12:48;;;;;;;6.87;5.87;;;5.70;99.90;;;;;;5012480;28;20231;-64
2023/01/16 07:23:34;;;;;;;5.90;5.60;;;5.60;99.90;;;;;;5011614;28;20230;-64
2023/01/16 07:26:03;;;;;;;5.83;5.63;;;5.60;99.90;;;;;;5015753;28;20195;-64
2023/01/16 07:28:28;;;;;;;7.03;6.73;;;5.60;99.90;;;;;;5024404;28;20276;-64
2023/01/16 07:30:55;;;;;;;5.20;4.93;;;5.70;99.90;;;;;;5018068;28;20179;-64
2023/01/16 07:33:20;;;;;;;5.43;5.20;;;5.70;99.90;;;;;;5012110;28;20599;-64
2023/01/16 07:35:46;;;;;;;5.73;5.50;;;5.70;99.90;;;;;;5017450;28;20167;-63
2023/01/16 07:38:12;;;;;;;5.57;5.27;;;5.70;99.90;;;;;;5015838;28;20574;-64
2023/01/16 07:40:37;;;;;;;7.47;6.13;;;5.70;99.90;;;;;;5017105;28;20175;-64
2023/01/16 07:43:03;;;;;;;5.30;5.10;;;5.70;99.90;;;;;;5030240;28;20264;-64
2023/01/16 07:45:29;;;;;;;5.67;5.37;;;5.60;99.90;;;;;;5021927;28;20191;-64
2023/01/16 07:47:54;;;;;;;5.30;5.10;;;5.60;99.90;;;;;;5011626;28;20214;-64
2023/01/16 07:50:20;;;;;;;8.00;7.70;;;5.50;99.90;;;;;;5011443;28;20168;-64
2023/01/16 07:52:46;;;;;;;5.83;5.60;;;5.50;99.90;;;;;;5011678;28;20617;-64
2023/01/16 07:55:13;;;;;;;5.60;5.40;;;5.40;99.90;;;;;;5011801;28;20179;-64
2023/01/16 07:57:39;;;;;;;6.37;5.87;;;5.30;99.90;;;;;;5009859;28;20191;-64
2023/01/16 08:00:09;;;;;;;6.17;5.90;;;5.30;99.90;;;;;;5011372;28;20180;-64
2023/01/16 08:02:34;;;;;;;5.80;5.60;;;5.30;99.90;;;;;;5011561;28;20199;-63
2023/01/16 08:05:00;;;;;;;5.67;5.47;;;5.20;99.90;;;;;;5011546;28;20238;-63
2023/01/16 08:07:25;;;;;;;5.97;5.77;;;5.20;99.90;;;;;;5011570;28;20207;-64
2023/01/16 08:09:51;;;;;;;5.10;4.90;;;5.20;99.90;;;;;;5009840;28;20539;-63
2023/01/16 08:12:17;;;;;;;6.57;6.27;;;5.20;99.90;;;;;;5011542;28;20242;-64
2023/01/16 08:14:42;;;;;;;5.57;5.13;;;5.20;99.90;;;;;;5011518;28;20646;-64
2023/01/16 08:17:08;;;;;;;6.13;5.83;;;5.20;99.90;;;;;;5011693;28;20168;-64
2023/01/16 08:19:33;;;;;;;6.87;6.57;;;5.20;99.90;;;;;;5011202;28;20579;-64
2023/01/16 08:21:59;;;;;;;5.70;5.50;;;5.20;99.90;;;;;;5015132;28;20184;-64
2023/01/16 08:24:25;;;;;;;6.70;6.40;;;5.20;99.90;;;;;;5024698;28;20206;-64
2023/01/16 08:26:54;;;;;;;6.40;6.20;;;5.20;99.90;;;;;;5023745;28;20566;-63
2023/01/16 08:29:20;;;;;;;5.83;5.53;;;5.30;99.90;;;;;;5011184;28;20187;-64
2023/01/16 08:31:45;;;;;;;6.40;6.10;;;5.30;99.90;;;;;;5010903;28;20670;-64
2023/01/16 08:34:11;;;;;;;7.80;6.70;;;5.30;99.90;;;;;;5011683;28;20168;-64
2023/01/16 08:36:37;;;;;;;6.50;5.97;;;5.30;99.90;;;;;;5021172;28;20179;-64
2023/01/16 08:39:03;;;;;;;22.93;22.00;;;5.40;99.90;;;;;;5017365;28;20259;-63
2023/01/16 08:52:33;;;;;;;7.40;6.87;;;5.40;99.90;;;;;;5008375;28;20211;-63
2023/01/16 08:54:59;;;;;;;6.17;5.87;;;5.40;99.90;;;;;;5013493;28;20189;-63
2023/01/16 08:57:26;;;;;;;8.13;7.83;;;5.40;99.90;;;;;;5013891;28;20187;-63
2023/01/16 08:59:51;;;;;;;6.77;6.47;;;5.40;99.90;;;;;;5017128;28;20538;-64
2023/01/16 09:02:19;;;;;;;8.70;8.30;;;5.40;99.90;;;;;;5012129;28;20204;-63
2023/01/16 09:04:44;;;;;;;6.17;5.87;;;5.40;99.90;;;;;;5013461;28;20188;-64
2023/01/16 09:07:10;;;;;;;5.40;5.20;;;5.30;99.90;;;;;;5017598;28;20200;-63
2023/01/16 09:09:36;;;;;;;5.47;5.17;;;5.30;99.90;;;;;;5031801;28;20175;-64
2023/01/16 09:14:46;;;;;;;7.93;7.53;;;5.30;99.90;;;;;;5014677;28;20179;-64
2023/01/16 09:17:11;;;;;;;7.13;6.83;;;5.30;99.90;;;;;;5015686;28;20183;-64
2023/01/16 09:19:37;;;;;;;9.70;9.00;;;5.30;99.90;;;;;;5023968;28;20237;-63
2023/01/16 09:22:07;;;;;;;9.53;9.13;;;5.30;99.90;;;;;;5028262;28;20238;-64
2023/01/16 09:24:34;;;;;;;5.57;5.37;;;5.30;99.90;;;;;;5023454;28;20867;-64
2023/01/16 09:27:01;;;;;;;22.70;21.30;;;5.30;99.90;;;;;;5032393;28;20230;-64
2023/01/16 09:29:27;;;;;;;6.63;6.33;;;5.30;99.90;;;;;;5031358;28;20183;-64
2023/01/16 09:31:53;;;;;;;6.20;6.00;;;5.30;99.90;;;;;;5017579;28;20182;-63
2023/01/16 09:34:19;;;;;;;8.20;7.80;;;5.30;99.90;;;;;;5014822;28;20176;-63
2023/01/16 09:36:44;;;;;;;5.70;5.50;;;5.40;99.90;;;;;;5026650;28;20180;-64
2023/01/16 09:39:10;;;;;;;5.70;5.40;;;5.40;99.90;;;;;;5044750;28;20172;-64
2023/01/16 09:44:39;;;;;;;7.77;7.27;;;5.30;99.90;;;;;;5015663;28;20187;-63
2023/01/16 09:47:05;;;;;;;5.70;5.50;;;5.30;99.90;;;;;;5014444;28;20196;-63
2023/01/16 09:49:59;;;;;;;11.53;11.03;;;5.40;99.90;;;;;;5015031;28;20171;-64
2023/01/16 09:58:36;;;;;;;6.03;5.83;;;5.40;99.90;;;;;;5033799;28;20198;-64
2023/01/16 10:01:16;;;;;;;5.63;5.43;;;5.40;99.90;;;;;;5027219;28;20179;-62
2023/01/16 10:03:42;;;;;;;10.03;9.47;;;5.50;99.90;;;;;;5013866;28;20342;-64
2023/01/16 10:06:10;;;;;;;6.97;6.67;;;5.50;99.90;;;;;;5019665;28;20557;-64
2023/01/16 10:08:53;;;;;;;5.80;5.60;;;5.50;99.90;;;;;;5033100;28;20286;-64
2023/01/16 10:11:28;;;;;;;7.30;7.00;;;5.50;99.90;;;;;;5014830;28;20207;-64
2023/01/16 10:14:03;;;;;;;7.70;7.40;;;5.50;99.90;;;;;;5013394;28;20291;-64
2023/01/16 10:16:49;;;;;;;5.87;5.67;;;5.50;99.90;;;;;;5031803;28;20233;-64
2023/01/16 10:19:32;;;;;;;5.23;5.03;;;5.60;99.90;;;;;;5025962;28;20230;-63
2023/01/16 10:22:33;;;;;;;5.83;5.53;;;5.60;99.90;;;;;;5012425;28;20176;-64
2023/01/16 10:25:28;;;;;;;5.33;5.13;;;5.70;99.90;;;;;;5023155;28;20565;-64
2023/01/16 10:27:54;;;;;;;6.77;6.47;;;5.70;99.90;;;;;;5032946;28;20672;-64
2023/01/16 10:30:25;;;;;;;12.63;11.57;;;5.80;99.90;;;;;;5018254;28;20184;-64
2023/01/16 10:33:13;;;;;;;9.17;8.50;;;5.80;99.90;;;;;;5013346;28;20666;-64
2023/01/16 10:35:43;;;;;;;5.50;5.30;;;5.80;99.90;;;;;;5024872;28;20539;-64
2023/01/16 10:38:45;;;;;;;5.70;5.40;;;5.80;99.90;;;;;;5013052;28;20338;-64
2023/01/16 10:50:21;;;;;;;6.87;6.47;;;6.00;99.90;;;;;;4993283;28;20547;-64
2023/01/16 10:52:48;;;;;;;5.70;5.40;;;6.10;99.90;;;;;;4993084;28;20219;-64
2023/01/16 10:55:15;;;;;;;6.13;5.93;;;6.20;99.90;;;;;;5030937;28;20703;-64
2023/01/16 10:57:54;;;;;;;5.87;5.57;;;6.30;99.90;;;;;;5032581;28;20186;-64
2023/01/16 11:00:41;;;;;;;5.73;5.53;;;6.40;99.90;;;;;;5030727;28;20223;-64
2023/01/16 11:03:27;;;;;;;5.63;5.33;;;6.60;99.90;;;;;;5031398;28;20581;-64
2023/01/16 11:06:11;;;;;;;6.53;6.17;;;6.60;99.90;;;;;;5011914;28;20289;-64
2023/01/16 11:08:36;;;;;;;5.30;5.10;;;6.60;99.90;;;;;;5013306;28;20296;-64
2023/01/16 11:11:02;;;;;;;5.00;4.80;;;6.50;99.90;;;;;;5010946;28;20223;-64
2023/01/16 11:19:22;;;;;;;5.70;5.40;;;6.50;99.90;;;;;;5028598;28;20429;-64
2023/01/16 11:22:06;;;;;;;5.73;5.47;;;6.50;99.90;;;;;;4992496;28;20191;-64
2023/01/16 11:24:35;;;;;;;5.63;5.43;;;6.50;99.90;;;;;;5012598;28;20182;-64
2023/01/16 11:27:05;;;;;;;4.97;4.77;;;6.70;99.90;;;;;;5031860;28;20179;-64
2023/01/16 11:29:38;;;;;;;5.80;5.50;;;7.00;99.90;;;;;;5029742;28;20175;-64
2023/01/16 11:32:11;;;;;;;20.70;19.83;;;7.20;99.90;;;;;;5031413;28;20195;-64
2023/01/16 11:34:39;;;;;;;6.90;6.60;;;7.40;99.90;;;;;;5029843;28;20258;-64
2023/01/16 11:37:07;;;;;;;5.40;5.20;;;7.50;99.90;;;;;;5031954;28;20186;-64
2023/01/16 11:39:34;;;;;;;5.20;5.00;;;7.70;99.90;;;;;;5013741;28;20256;-64
2023/01/16 11:46:02;;;;;;;4.70;4.50;;;8.20;99.90;;;;;;5011744;28;20575;-64
2023/01/16 11:47:41;;;;;;;4.93;4.73;;;8.60;99.90;;;;;;5042556;28;20214;-64
2023/01/16 11:50:35;;;;;;;5.53;5.33;;;8.70;99.90;;;;;;5046586;28;20195;-64
2023/01/16 11:53:01;;;;;;;4.80;4.60;;;8.60;99.90;;;;;;5045384;28;20203;-64
2023/01/16 11:56:02;;;;;;;4.43;4.23;;;8.40;99.90;;;;;;5029924;28;20180;-64
2023/01/16 11:58:54;;;;;;;4.90;4.70;;;8.20;99.90;;;;;;5011789;28;20192;-64
2023/01/16 12:04:29;;;;;;;5.30;5.10;;;7.50;99.90;;;;;;5011648;28;20182;-64
2023/01/16 12:07:13;;;;;;;5.40;5.20;;;7.20;99.90;;;;;;5021431;28;20187;-64
2023/01/16 12:09:48;;;;;;;4.90;4.70;;;7.00;99.90;;;;;;5028704;28;20190;-64
2023/01/16 12:15:35;;;;;;;5.20;5.00;;;6.90;99.90;;;;;;5018690;28;20186;-64
2023/01/16 12:18:52;;;;;;;5.60;5.40;;;6.90;99.90;;;;;;5031273;28;20183;-64
2023/01/16 12:21:39;;;;;;;5.10;4.90;;;7.00;99.90;;;;;;5001871;28;20250;-64
2023/01/16 12:24:05;;;;;;;5.17;4.97;;;7.00;99.90;;;;;;5010785;28;20191;-64
2023/01/16 12:27:03;;;;;;;5.17;4.97;;;7.00;99.90;;;;;;5030916;28;20186;-64
2023/01/16 12:29:48;;;;;;;5.67;5.47;;;6.90;99.90;;;;;;4994219;28;20206;-64
2023/01/16 12:32:29;;;;;;;5.23;5.03;;;6.80;99.90;;;;;;5011314;28;20203;-64
2023/01/16 12:35:33;;;;;;;5.10;4.90;;;6.80;99.90;;;;;;5015131;28;20269;-64
2023/01/16 12:38:10;;;;;;;5.17;4.97;;;6.80;99.90;;;;;;4989104;28;20370;-64
2023/01/16 12:44:12;;;;;;;5.30;4.93;;;7.00;99.90;;;;;;5011195;28;20226;-64
2023/01/16 12:47:09;;;;;;;5.23;4.93;;;7.00;99.90;;;;;;5015031;28;20184;-64
2023/01/16 12:49:53;;;;;;;5.00;4.80;;;6.80;99.90;;;;;;5014741;28;20173;-64
2023/01/16 12:52:43;;;;;;;5.13;4.93;;;6.70;99.90;;;;;;5014941;28;20196;-64
2023/01/16 12:55:48;;;;;;;4.97;4.77;;;6.60;99.90;;;;;;5024719;28;20229;-64
2023/01/16 12:58:18;;;;;;;5.17;4.73;;;6.50;99.90;;;;;;5031425;28;20199;-64
2023/01/16 13:01:06;;;;;;;4.60;4.40;;;6.50;99.90;;;;;;5018226;28;20187;-63
2023/01/16 13:03:39;;;;;;;4.73;4.53;;;6.50;99.90;;;;;;5027858;28;20210;-63
2023/01/16 13:06:10;;;;;;;5.40;5.00;;;6.50;99.90;;;;;;5034637;28;20183;-63
2023/01/16 13:08:44;;;;;;;5.40;4.90;;;6.50;99.90;;;;;;5019936;28;20573;-64
2023/01/16 13:14:05;;;;;;;5.00;4.80;;;6.50;99.90;;;;;;5015511;28;20207;-63
2023/01/16 13:16:40;;;;;;;5.67;5.37;;;6.50;99.90;;;;;;5014560;28;20184;-64
2023/01/16 13:19:11;;;;;;;5.53;5.23;;;6.50;99.90;;;;;;5029832;28;20266;-62
2023/01/16 13:22:12;;;;;;;5.17;4.97;;;6.50;99.90;;;;;;5034005;28;20183;-64
2023/01/16 13:24:51;;;;;;;5.30;5.10;;;6.50;99.90;;;;;;4985624;28;20197;-64
2023/01/16 13:27:22;;;;;;;5.60;5.30;;;6.60;99.90;;;;;;4998117;28;20200;-64
2023/01/16 13:29:54;;;;;;;5.00;4.80;;;6.70;99.90;;;;;;5033625;28;20258;-63
2023/01/16 13:32:25;;;;;;;4.83;4.63;;;6.70;99.90;;;;;;5012098;28;20199;-64
2023/01/16 13:35:02;;;;;;;5.53;5.33;;;6.70;99.90;;;;;;5014297;28;20176;-64
2023/01/16 13:37:59;;;;;;;4.83;4.60;;;6.60;99.90;;;;;;4992622;28;20184;-64
2023/01/16 13:40:39;;;;;;;4.90;4.70;;;6.50;99.90;;;;;;5002328;28;20218;-63
2023/01/16 13:45:55;;;;;;;5.37;5.17;;;6.40;99.90;;;;;;5026100;28;20203;-64
2023/01/16 13:48:27;;;;;;;5.60;5.40;;;6.40;99.90;;;;;;5013738;28;20277;-63
2023/01/16 13:50:59;;;;;;;5.07;4.87;;;6.30;99.90;;;;;;5014831;28;20616;-64
2023/01/16 13:53:27;;;;;;;5.60;5.40;;;6.20;99.90;;;;;;5013749;28;20717;-64
2023/01/16 13:56:15;;;;;;;5.27;5.07;;;6.10;99.90;;;;;;5021913;28;20183;-65
2023/01/16 13:58:46;;;;;;;5.63;5.43;;;6.00;99.90;;;;;;5026079;28;20191;-64
2023/01/16 14:01:32;;;;;;;5.50;5.30;;;6.00;99.90;;;;;;5025074;28;20336;-64
2023/01/16 14:04:18;;;;;;;5.83;5.63;;;5.90;99.90;;;;;;4993912;28;20702;-64
2023/01/16 14:06:45;;;;;;;5.67;5.47;;;5.90;99.90;;;;;;5005048;28;20175;-64
2023/01/16 14:09:23;;;;;;;5.70;5.50;;;5.80;99.90;;;;;;5033173;28;20214;-64
2023/01/16 14:12:21;;;;;;;5.97;5.67;;;5.80;99.90;;;;;;5026982;28;20183;-64
2023/01/16 14:18:01;;;;;;;5.67;5.47;;;5.70;99.90;;;;;;5033718;28;20525;-65
2023/01/16 14:20:50;;;;;;;5.83;5.63;;;5.60;99.90;;;;;;5027669;28;20234;-65
2023/01/16 14:26:18;;;;;;;6.10;5.70;;;5.50;99.90;;;;;;5024832;28;20190;-65
2023/01/16 14:28:48;;;;;;;6.20;5.90;;;5.40;99.90;;;;;;5033019;28;20601;-65
2023/01/16 14:31:26;;;;;;;6.30;6.00;;;5.40;99.90;;;;;;5020617;28;20191;-65
2023/01/16 14:33:56;;;;;;;5.30;5.10;;;5.40;99.90;;;;;;5012749;28;20191;-65
2023/01/16 14:36:24;;;;;;;5.73;5.50;;;5.40;99.90;;;;;;5016703;28;20184;-65